sensor_id;sensor_type;location;lat;lon;timestamp;P1;durP1;ratioP1;P2;durP2;ratioP2
45792;SDS011;31495;42.740;22.908;2022-09-03T00:00:46;8.73;;;5.80;;
45792;SDS011;31495;42.740;22.908;2022-09-03T00:01:52;9.85;;;6.13;;
45792;SDS011;31495;42.740;22.908;2022-09-03T00:02:59;9.73;;;5.28;;
45792;SDS011;31495;42.740;22.908;2022-09-03T00:04:06;7.80;;;4.90;;
45792;SDS011;31495;42.740;22.908;2022-09-03T00:05:13;8.82;;;6.10;;
45792;SDS011;31495;42.740;22.908;2022-09-03T00:06:15;7.93;;;5.20;;
45792;SDS011;31495;42.740;22.908;2022-09-03T00:07:27;9.82;;;5.72;;
45792;SDS011;31495;42.740;22.908;2022-09-03T00:08:54;8.20;;;5.70;;
45792;SDS011;31495;42.740;22.908;2022-09-03T00:10:02;12.15;;;7.43;;
45792;SDS011;31495;42.740;22.908;2022-09-03T00:11:26;8.07;;;6.88;;
45792;SDS011;31495;42.740;22.908;2022-09-03T00:12:31;10.30;;;6.20;;
45792;SDS011;31495;42.740;22.908;2022-09-03T00:13:35;7.13;;;5.75;;
45792;SDS011;31495;42.740;22.908;2022-09-03T00:16:05;7.07;;;5.93;;
45792;SDS011;31495;42.740;22.908;2022-09-03T00:17:21;15.93;;;5.82;;
45792;SDS011;31495;42.740;22.908;2022-09-03T00:18:26;8.18;;;6.30;;
45792;SDS011;31495;42.740;22.908;2022-09-03T00:19:31;8.32;;;5.97;;
45792;SDS011;31495;42.740;22.908;2022-09-03T00:21:52;8.82;;;6.20;;
45792;SDS011;31495;42.740;22.908;2022-09-03T00:22:57;9.93;;;5.68;;
45792;SDS011;31495;42.740;22.908;2022-09-03T00:24:02;8.52;;;5.55;;
45792;SDS011;31495;42.740;22.908;2022-09-03T00:25:06;10.73;;;5.25;;
45792;SDS011;31495;42.740;22.908;2022-09-03T00:27:11;8.85;;;6.38;;
45792;SDS011;31495;42.740;22.908;2022-09-03T00:28:16;9.10;;;4.90;;
45792;SDS011;31495;42.740;22.908;2022-09-03T00:29:48;8.63;;;5.30;;
45792;SDS011;31495;42.740;22.908;2022-09-03T00:31:01;8.32;;;5.93;;
45792;SDS011;31495;42.740;22.908;2022-09-03T00:32:12;6.88;;;4.68;;
45792;SDS011;31495;42.740;22.908;2022-09-03T00:33:17;11.68;;;5.68;;
45792;SDS011;31495;42.740;22.908;2022-09-03T00:34:22;7.45;;;5.22;;
45792;SDS011;31495;42.740;22.908;2022-09-03T00:36:41;6.30;;;5.07;;
45792;SDS011;31495;42.740;22.908;2022-09-03T00:37:42;10.57;;;5.90;;
45792;SDS011;31495;42.740;22.908;2022-09-03T00:38:42;9.88;;;5.47;;
45792;SDS011;31495;42.740;22.908;2022-09-03T00:39:42;6.65;;;4.72;;
45792;SDS011;31495;42.740;22.908;2022-09-03T00:46:04;7.07;;;4.65;;
45792;SDS011;31495;42.740;22.908;2022-09-03T00:47:24;6.88;;;4.53;;
45792;SDS011;31495;42.740;22.908;2022-09-03T00:48:44;6.55;;;4.55;;
45792;SDS011;31495;42.740;22.908;2022-09-03T00:57:15;7.63;;;4.95;;
45792;SDS011;31495;42.740;22.908;2022-09-03T01:00:05;8.18;;;4.95;;
45792;SDS011;31495;42.740;22.908;2022-09-03T01:01:15;9.52;;;6.15;;
45792;SDS011;31495;42.740;22.908;2022-09-03T01:03:45;9.80;;;5.72;;
45792;SDS011;31495;42.740;22.908;2022-09-03T01:09:34;10.90;;;5.20;;
45792;SDS011;31495;42.740;22.908;2022-09-03T01:12:17;8.77;;;5.40;;
45792;SDS011;31495;42.740;22.908;2022-09-03T01:20:16;8.80;;;6.25;;
45792;SDS011;31495;42.740;22.908;2022-09-03T01:21:31;10.73;;;5.72;;
45792;SDS011;31495;42.740;22.908;2022-09-03T01:23:07;9.85;;;6.30;;
45792;SDS011;31495;42.740;22.908;2022-09-03T01:29:12;10.82;;;6.75;;
45792;SDS011;31495;42.740;22.908;2022-09-03T01:30:24;7.38;;;5.50;;
45792;SDS011;31495;42.740;22.908;2022-09-03T01:32:07;9.50;;;5.82;;
45792;SDS011;31495;42.740;22.908;2022-09-03T01:34:05;6.72;;;4.95;;
45792;SDS011;31495;42.740;22.908;2022-09-03T01:42:55;9.75;;;5.00;;
45792;SDS011;31495;42.740;22.908;2022-09-03T01:44:16;7.68;;;5.35;;
45792;SDS011;31495;42.740;22.908;2022-09-03T01:46:44;7.65;;;5.25;;
45792;SDS011;31495;42.740;22.908;2022-09-03T01:51:43;6.78;;;4.47;;
45792;SDS011;31495;42.740;22.908;2022-09-03T02:00:42;7.95;;;4.55;;
45792;SDS011;31495;42.740;22.908;2022-09-03T02:01:45;8.68;;;5.00;;
45792;SDS011;31495;42.740;22.908;2022-09-03T02:02:51;7.32;;;4.40;;
45792;SDS011;31495;42.740;22.908;2022-09-03T02:03:51;6.32;;;3.72;;
45792;SDS011;31495;42.740;22.908;2022-09-03T02:05:57;5.85;;;4.05;;
45792;SDS011;31495;42.740;22.908;2022-09-03T02:06:59;5.55;;;3.92;;
45792;SDS011;31495;42.740;22.908;2022-09-03T02:08:59;5.53;;;3.72;;
45792;SDS011;31495;42.740;22.908;2022-09-03T02:10:00;6.30;;;3.78;;
45792;SDS011;31495;42.740;22.908;2022-09-03T02:11:00;6.75;;;4.70;;
45792;SDS011;31495;42.740;22.908;2022-09-03T02:12:02;6.65;;;5.03;;
45792;SDS011;31495;42.740;22.908;2022-09-03T02:13:29;7.90;;;3.92;;
45792;SDS011;31495;42.740;22.908;2022-09-03T02:14:30;5.20;;;3.50;;
45792;SDS011;31495;42.740;22.908;2022-09-03T02:15:30;6.18;;;3.17;;
45792;SDS011;31495;42.740;22.908;2022-09-03T02:16:32;6.63;;;4.47;;
45792;SDS011;31495;42.740;22.908;2022-09-03T02:17:33;6.15;;;3.97;;
45792;SDS011;31495;42.740;22.908;2022-09-03T02:18:40;5.75;;;4.20;;
45792;SDS011;31495;42.740;22.908;2022-09-03T02:19:45;6.30;;;4.22;;
45792;SDS011;31495;42.740;22.908;2022-09-03T02:20:44;6.03;;;3.70;;
45792;SDS011;31495;42.740;22.908;2022-09-03T02:22:51;5.53;;;3.55;;
45792;SDS011;31495;42.740;22.908;2022-09-03T02:23:52;6.07;;;3.65;;
45792;SDS011;31495;42.740;22.908;2022-09-03T02:24:52;5.63;;;3.92;;
45792;SDS011;31495;42.740;22.908;2022-09-03T02:25:51;7.47;;;3.67;;
45792;SDS011;31495;42.740;22.908;2022-09-03T02:26:55;6.13;;;3.67;;
45792;SDS011;31495;42.740;22.908;2022-09-03T02:27:55;4.78;;;3.45;;
45792;SDS011;31495;42.740;22.908;2022-09-03T02:28:55;6.93;;;4.65;;
45792;SDS011;31495;42.740;22.908;2022-09-03T02:29:56;6.53;;;3.92;;
45792;SDS011;31495;42.740;22.908;2022-09-03T02:30:57;5.72;;;3.83;;
45792;SDS011;31495;42.740;22.908;2022-09-03T02:31:57;4.60;;;3.58;;
45792;SDS011;31495;42.740;22.908;2022-09-03T02:32:57;5.13;;;3.72;;
45792;SDS011;31495;42.740;22.908;2022-09-03T02:33:58;5.97;;;3.92;;
45792;SDS011;31495;42.740;22.908;2022-09-03T02:34:58;8.70;;;4.22;;
45792;SDS011;31495;42.740;22.908;2022-09-03T02:35:58;4.88;;;3.42;;
45792;SDS011;31495;42.740;22.908;2022-09-03T02:36:58;4.30;;;2.92;;
45792;SDS011;31495;42.740;22.908;2022-09-03T02:38:07;6.28;;;3.65;;
45792;SDS011;31495;42.740;22.908;2022-09-03T02:39:08;5.22;;;3.55;;
45792;SDS011;31495;42.740;22.908;2022-09-03T02:40:08;5.57;;;3.88;;
45792;SDS011;31495;42.740;22.908;2022-09-03T02:41:09;4.70;;;3.38;;
45792;SDS011;31495;42.740;22.908;2022-09-03T02:42:11;6.20;;;3.80;;
45792;SDS011;31495;42.740;22.908;2022-09-03T02:45:44;5.32;;;3.38;;
45792;SDS011;31495;42.740;22.908;2022-09-03T02:46:23;5.85;;;3.17;;
45792;SDS011;31495;42.740;22.908;2022-09-03T02:47:29;4.65;;;3.28;;
45792;SDS011;31495;42.740;22.908;2022-09-03T02:48:31;4.95;;;3.10;;
45792;SDS011;31495;42.740;22.908;2022-09-03T02:49:31;6.68;;;3.95;;
45792;SDS011;31495;42.740;22.908;2022-09-03T02:50:31;6.15;;;3.95;;
45792;SDS011;31495;42.740;22.908;2022-09-03T02:51:38;7.90;;;3.70;;
45792;SDS011;31495;42.740;22.908;2022-09-03T02:52:40;6.95;;;3.75;;
45792;SDS011;31495;42.740;22.908;2022-09-03T02:53:40;4.72;;;3.25;;
45792;SDS011;31495;42.740;22.908;2022-09-03T02:54:40;6.95;;;3.72;;
45792;SDS011;31495;42.740;22.908;2022-09-03T02:55:40;7.18;;;3.88;;
45792;SDS011;31495;42.740;22.908;2022-09-03T02:56:40;6.75;;;4.03;;
45792;SDS011;31495;42.740;22.908;2022-09-03T02:57:40;5.22;;;3.95;;
45792;SDS011;31495;42.740;22.908;2022-09-03T02:58:39;6.60;;;3.78;;
45792;SDS011;31495;42.740;22.908;2022-09-03T02:59:40;6.00;;;3.80;;
45792;SDS011;31495;42.740;22.908;2022-09-03T03:00:42;5.20;;;4.03;;
45792;SDS011;31495;42.740;22.908;2022-09-03T03:01:41;6.70;;;4.35;;
45792;SDS011;31495;42.740;22.908;2022-09-03T03:02:40;7.60;;;4.45;;
45792;SDS011;31495;42.740;22.908;2022-09-03T03:03:41;6.82;;;4.40;;
45792;SDS011;31495;42.740;22.908;2022-09-03T03:04:40;6.65;;;4.35;;
45792;SDS011;31495;42.740;22.908;2022-09-03T03:05:52;6.68;;;4.15;;
45792;SDS011;31495;42.740;22.908;2022-09-03T03:06:55;6.90;;;4.38;;
45792;SDS011;31495;42.740;22.908;2022-09-03T03:07:55;7.32;;;4.35;;
45792;SDS011;31495;42.740;22.908;2022-09-03T03:08:56;6.72;;;4.28;;
45792;SDS011;31495;42.740;22.908;2022-09-03T03:09:56;7.13;;;4.50;;
45792;SDS011;31495;42.740;22.908;2022-09-03T03:10:57;5.90;;;3.90;;
45792;SDS011;31495;42.740;22.908;2022-09-03T03:11:57;6.10;;;4.20;;
45792;SDS011;31495;42.740;22.908;2022-09-03T03:12:57;6.30;;;4.57;;
45792;SDS011;31495;42.740;22.908;2022-09-03T03:13:56;7.00;;;4.45;;
45792;SDS011;31495;42.740;22.908;2022-09-03T03:14:56;6.90;;;4.30;;
45792;SDS011;31495;42.740;22.908;2022-09-03T03:15:56;9.02;;;4.47;;
45792;SDS011;31495;42.740;22.908;2022-09-03T03:16:58;6.10;;;4.22;;
45792;SDS011;31495;42.740;22.908;2022-09-03T03:17:57;7.13;;;5.15;;
45792;SDS011;31495;42.740;22.908;2022-09-03T03:18:56;7.82;;;4.22;;
45792;SDS011;31495;42.740;22.908;2022-09-03T03:19:56;5.43;;;3.80;;
45792;SDS011;31495;42.740;22.908;2022-09-03T03:20:56;10.50;;;4.05;;
45792;SDS011;31495;42.740;22.908;2022-09-03T03:21:56;4.93;;;3.63;;
45792;SDS011;31495;42.740;22.908;2022-09-03T03:22:55;6.10;;;3.97;;
45792;SDS011;31495;42.740;22.908;2022-09-03T03:23:54;9.73;;;3.90;;
45792;SDS011;31495;42.740;22.908;2022-09-03T03:24:54;5.65;;;3.63;;
45792;SDS011;31495;42.740;22.908;2022-09-03T03:25:59;7.35;;;3.80;;
45792;SDS011;31495;42.740;22.908;2022-09-03T03:26:59;3.42;;;2.53;;
45792;SDS011;31495;42.740;22.908;2022-09-03T03:27:58;7.22;;;4.32;;
45792;SDS011;31495;42.740;22.908;2022-09-03T03:29:00;5.90;;;3.63;;
45792;SDS011;31495;42.740;22.908;2022-09-03T03:30:03;4.95;;;3.45;;
45792;SDS011;31495;42.740;22.908;2022-09-03T03:32:06;6.20;;;4.18;;
45792;SDS011;31495;42.740;22.908;2022-09-03T03:33:06;6.22;;;4.20;;
45792;SDS011;31495;42.740;22.908;2022-09-03T03:34:05;10.50;;;4.72;;
45792;SDS011;31495;42.740;22.908;2022-09-03T03:35:05;6.10;;;4.13;;
45792;SDS011;31495;42.740;22.908;2022-09-03T03:36:05;6.43;;;4.10;;
45792;SDS011;31495;42.740;22.908;2022-09-03T03:37:10;6.80;;;4.18;;
45792;SDS011;31495;42.740;22.908;2022-09-03T03:38:10;6.72;;;4.22;;
45792;SDS011;31495;42.740;22.908;2022-09-03T03:39:09;8.00;;;3.92;;
45792;SDS011;31495;42.740;22.908;2022-09-03T03:40:09;6.72;;;4.30;;
45792;SDS011;31495;42.740;22.908;2022-09-03T03:41:09;6.80;;;4.38;;
45792;SDS011;31495;42.740;22.908;2022-09-03T03:42:15;6.95;;;4.35;;
45792;SDS011;31495;42.740;22.908;2022-09-03T03:43:14;7.22;;;4.25;;
45792;SDS011;31495;42.740;22.908;2022-09-03T03:44:13;5.57;;;4.60;;
45792;SDS011;31495;42.740;22.908;2022-09-03T03:45:13;6.40;;;3.75;;
45792;SDS011;31495;42.740;22.908;2022-09-03T03:46:13;5.05;;;3.58;;
45792;SDS011;31495;42.740;22.908;2022-09-03T03:47:15;6.35;;;3.88;;
45792;SDS011;31495;42.740;22.908;2022-09-03T03:48:16;4.68;;;3.45;;
45792;SDS011;31495;42.740;22.908;2022-09-03T03:49:15;5.60;;;4.13;;
45792;SDS011;31495;42.740;22.908;2022-09-03T03:50:16;5.43;;;4.03;;
45792;SDS011;31495;42.740;22.908;2022-09-03T03:51:15;8.10;;;4.38;;
45792;SDS011;31495;42.740;22.908;2022-09-03T03:52:15;7.35;;;4.05;;
45792;SDS011;31495;42.740;22.908;2022-09-03T03:53:14;6.32;;;3.75;;
45792;SDS011;31495;42.740;22.908;2022-09-03T03:54:14;5.50;;;3.63;;
45792;SDS011;31495;42.740;22.908;2022-09-03T03:55:13;8.43;;;4.03;;
45792;SDS011;31495;42.740;22.908;2022-09-03T03:56:13;5.78;;;3.90;;
45792;SDS011;31495;42.740;22.908;2022-09-03T03:57:14;6.88;;;4.18;;
45792;SDS011;31495;42.740;22.908;2022-09-03T03:58:14;5.93;;;4.03;;
45792;SDS011;31495;42.740;22.908;2022-09-03T03:59:13;5.50;;;3.47;;
45792;SDS011;31495;42.740;22.908;2022-09-03T04:00:13;5.57;;;4.18;;
45792;SDS011;31495;42.740;22.908;2022-09-03T04:01:14;4.75;;;3.38;;
45792;SDS011;31495;42.740;22.908;2022-09-03T04:02:15;5.68;;;4.05;;
45792;SDS011;31495;42.740;22.908;2022-09-03T04:03:16;6.50;;;4.30;;
45792;SDS011;31495;42.740;22.908;2022-09-03T04:04:15;5.22;;;4.22;;
45792;SDS011;31495;42.740;22.908;2022-09-03T04:05:15;10.10;;;4.43;;
45792;SDS011;31495;42.740;22.908;2022-09-03T04:06:16;6.30;;;4.30;;
45792;SDS011;31495;42.740;22.908;2022-09-03T04:07:17;7.13;;;5.03;;
45792;SDS011;31495;42.740;22.908;2022-09-03T04:08:17;5.72;;;4.50;;
45792;SDS011;31495;42.740;22.908;2022-09-03T04:09:16;5.32;;;3.95;;
45792;SDS011;31495;42.740;22.908;2022-09-03T04:10:15;10.82;;;4.50;;
45792;SDS011;31495;42.740;22.908;2022-09-03T04:11:16;8.57;;;4.85;;
45792;SDS011;31495;42.740;22.908;2022-09-03T04:12:18;6.18;;;4.53;;
45792;SDS011;31495;42.740;22.908;2022-09-03T04:13:17;8.50;;;3.85;;
45792;SDS011;31495;42.740;22.908;2022-09-03T04:14:17;6.15;;;4.10;;
45792;SDS011;31495;42.740;22.908;2022-09-03T04:15:17;10.10;;;4.55;;
45792;SDS011;31495;42.740;22.908;2022-09-03T04:16:17;7.28;;;5.00;;
45792;SDS011;31495;42.740;22.908;2022-09-03T04:17:21;7.03;;;4.55;;
45792;SDS011;31495;42.740;22.908;2022-09-03T04:18:20;5.90;;;3.85;;
45792;SDS011;31495;42.740;22.908;2022-09-03T04:19:20;6.53;;;4.47;;
45792;SDS011;31495;42.740;22.908;2022-09-03T04:20:20;6.50;;;4.18;;
45792;SDS011;31495;42.740;22.908;2022-09-03T04:21:20;13.00;;;5.07;;
45792;SDS011;31495;42.740;22.908;2022-09-03T04:22:21;7.38;;;4.93;;
45792;SDS011;31495;42.740;22.908;2022-09-03T04:23:21;6.85;;;4.15;;
45792;SDS011;31495;42.740;22.908;2022-09-03T04:24:20;8.45;;;4.65;;
45792;SDS011;31495;42.740;22.908;2022-09-03T04:25:20;6.82;;;4.68;;
45792;SDS011;31495;42.740;22.908;2022-09-03T04:26:20;8.27;;;5.20;;
45792;SDS011;31495;42.740;22.908;2022-09-03T04:27:21;8.30;;;4.60;;
45792;SDS011;31495;42.740;22.908;2022-09-03T04:28:21;8.00;;;4.80;;
45792;SDS011;31495;42.740;22.908;2022-09-03T04:29:20;6.82;;;4.72;;
45792;SDS011;31495;42.740;22.908;2022-09-03T04:30:20;7.47;;;3.60;;
45792;SDS011;31495;42.740;22.908;2022-09-03T04:31:20;5.95;;;4.15;;
45792;SDS011;31495;42.740;22.908;2022-09-03T04:32:20;4.55;;;3.40;;
45792;SDS011;31495;42.740;22.908;2022-09-03T04:33:38;4.35;;;3.00;;
45792;SDS011;31495;42.740;22.908;2022-09-03T04:34:38;5.00;;;3.60;;
45792;SDS011;31495;42.740;22.908;2022-09-03T04:35:38;5.95;;;3.58;;
45792;SDS011;31495;42.740;22.908;2022-09-03T04:36:39;4.93;;;2.67;;
45792;SDS011;31495;42.740;22.908;2022-09-03T04:37:38;4.80;;;2.72;;
45792;SDS011;31495;42.740;22.908;2022-09-03T04:38:39;6.00;;;3.67;;
45792;SDS011;31495;42.740;22.908;2022-09-03T04:39:40;5.13;;;3.53;;
45792;SDS011;31495;42.740;22.908;2022-09-03T04:40:40;8.07;;;3.80;;
45792;SDS011;31495;42.740;22.908;2022-09-03T04:41:39;3.85;;;2.92;;
45792;SDS011;31495;42.740;22.908;2022-09-03T04:42:39;6.05;;;3.97;;
45792;SDS011;31495;42.740;22.908;2022-09-03T04:43:38;6.68;;;3.60;;
45792;SDS011;31495;42.740;22.908;2022-09-03T04:44:41;6.93;;;3.38;;
45792;SDS011;31495;42.740;22.908;2022-09-03T04:45:40;6.35;;;3.67;;
45792;SDS011;31495;42.740;22.908;2022-09-03T04:46:40;6.85;;;4.05;;
45792;SDS011;31495;42.740;22.908;2022-09-03T04:47:39;6.90;;;4.32;;
45792;SDS011;31495;42.740;22.908;2022-09-03T04:48:39;7.20;;;4.10;;
45792;SDS011;31495;42.740;22.908;2022-09-03T04:49:39;5.30;;;3.97;;
45792;SDS011;31495;42.740;22.908;2022-09-03T04:50:39;5.72;;;4.22;;
45792;SDS011;31495;42.740;22.908;2022-09-03T04:51:39;8.05;;;4.53;;
45792;SDS011;31495;42.740;22.908;2022-09-03T04:52:38;6.95;;;4.38;;
45792;SDS011;31495;42.740;22.908;2022-09-03T04:53:42;8.55;;;4.18;;
45792;SDS011;31495;42.740;22.908;2022-09-03T04:54:44;6.82;;;4.25;;
45792;SDS011;31495;42.740;22.908;2022-09-03T04:55:43;6.38;;;4.30;;
45792;SDS011;31495;42.740;22.908;2022-09-03T04:56:43;8.60;;;4.50;;
45792;SDS011;31495;42.740;22.908;2022-09-03T04:57:42;8.27;;;4.45;;
45792;SDS011;31495;42.740;22.908;2022-09-03T04:58:42;6.70;;;4.72;;
45792;SDS011;31495;42.740;22.908;2022-09-03T04:59:42;6.57;;;4.60;;
45792;SDS011;31495;42.740;22.908;2022-09-03T05:00:43;6.55;;;4.57;;
45792;SDS011;31495;42.740;22.908;2022-09-03T05:01:42;7.30;;;4.15;;
45792;SDS011;31495;42.740;22.908;2022-09-03T05:02:42;6.88;;;4.45;;
45792;SDS011;31495;42.740;22.908;2022-09-03T05:03:45;8.25;;;5.28;;
45792;SDS011;31495;42.740;22.908;2022-09-03T05:04:45;6.40;;;4.68;;
45792;SDS011;31495;42.740;22.908;2022-09-03T05:05:52;8.73;;;5.15;;
45792;SDS011;31495;42.740;22.908;2022-09-03T05:06:54;8.63;;;5.57;;
45792;SDS011;31495;42.740;22.908;2022-09-03T05:07:56;7.07;;;4.55;;
45792;SDS011;31495;42.740;22.908;2022-09-03T05:08:56;9.27;;;4.45;;
45792;SDS011;31495;42.740;22.908;2022-09-03T05:09:57;6.72;;;4.40;;
45792;SDS011;31495;42.740;22.908;2022-09-03T05:11:00;7.05;;;4.60;;
45792;SDS011;31495;42.740;22.908;2022-09-03T05:11:59;6.30;;;3.95;;
45792;SDS011;31495;42.740;22.908;2022-09-03T05:13:03;6.68;;;4.18;;
45792;SDS011;31495;42.740;22.908;2022-09-03T05:14:03;8.65;;;4.05;;
45792;SDS011;31495;42.740;22.908;2022-09-03T05:15:04;5.38;;;3.67;;
45792;SDS011;31495;42.740;22.908;2022-09-03T05:16:08;7.35;;;4.63;;
45792;SDS011;31495;42.740;22.908;2022-09-03T05:17:09;4.82;;;3.53;;
45792;SDS011;31495;42.740;22.908;2022-09-03T05:18:08;5.68;;;3.92;;
45792;SDS011;31495;42.740;22.908;2022-09-03T05:19:08;7.32;;;3.42;;
45792;SDS011;31495;42.740;22.908;2022-09-03T05:20:09;5.45;;;4.00;;
45792;SDS011;31495;42.740;22.908;2022-09-03T05:21:09;3.67;;;2.92;;
45792;SDS011;31495;42.740;22.908;2022-09-03T05:22:11;4.13;;;2.75;;
45792;SDS011;31495;42.740;22.908;2022-09-03T05:23:10;4.07;;;2.97;;
45792;SDS011;31495;42.740;22.908;2022-09-03T05:24:09;3.85;;;2.63;;
45792;SDS011;31495;42.740;22.908;2022-09-03T05:25:09;4.75;;;2.90;;
45792;SDS011;31495;42.740;22.908;2022-09-03T05:26:10;4.63;;;3.55;;
45792;SDS011;31495;42.740;22.908;2022-09-03T05:27:11;7.55;;;4.03;;
45792;SDS011;31495;42.740;22.908;2022-09-03T05:28:10;5.20;;;3.10;;
45792;SDS011;31495;42.740;22.908;2022-09-03T05:29:10;4.80;;;3.53;;
45792;SDS011;31495;42.740;22.908;2022-09-03T05:30:10;3.97;;;2.92;;
45792;SDS011;31495;42.740;22.908;2022-09-03T05:31:11;10.57;;;4.25;;
45792;SDS011;31495;42.740;22.908;2022-09-03T05:32:12;5.95;;;3.15;;
45792;SDS011;31495;42.740;22.908;2022-09-03T05:33:12;6.25;;;3.38;;
45792;SDS011;31495;42.740;22.908;2022-09-03T05:34:13;7.93;;;3.30;;
45792;SDS011;31495;42.740;22.908;2022-09-03T05:35:12;6.28;;;3.05;;
45792;SDS011;31495;42.740;22.908;2022-09-03T05:36:13;4.63;;;3.55;;
45792;SDS011;31495;42.740;22.908;2022-09-03T05:37:14;4.40;;;3.05;;
45792;SDS011;31495;42.740;22.908;2022-09-03T05:38:13;3.67;;;2.70;;
45792;SDS011;31495;42.740;22.908;2022-09-03T05:39:14;3.83;;;2.38;;
45792;SDS011;31495;42.740;22.908;2022-09-03T05:40:14;5.68;;;3.78;;
45792;SDS011;31495;42.740;22.908;2022-09-03T05:41:16;9.63;;;7.75;;
45792;SDS011;31495;42.740;22.908;2022-09-03T05:42:16;7.85;;;4.63;;
45792;SDS011;31495;42.740;22.908;2022-09-03T05:43:15;5.00;;;3.53;;
45792;SDS011;31495;42.740;22.908;2022-09-03T05:44:15;3.92;;;3.28;;
45792;SDS011;31495;42.740;22.908;2022-09-03T05:45:14;5.22;;;3.85;;
45792;SDS011;31495;42.740;22.908;2022-09-03T05:46:14;4.90;;;3.95;;
45792;SDS011;31495;42.740;22.908;2022-09-03T05:47:16;5.82;;;3.97;;
45792;SDS011;31495;42.740;22.908;2022-09-03T05:48:15;6.57;;;3.40;;
45792;SDS011;31495;42.740;22.908;2022-09-03T05:49:15;4.55;;;2.85;;
45792;SDS011;31495;42.740;22.908;2022-09-03T05:50:14;13.48;;;4.90;;
45792;SDS011;31495;42.740;22.908;2022-09-03T05:51:15;7.95;;;4.55;;
45792;SDS011;31495;42.740;22.908;2022-09-03T05:53:17;5.35;;;3.22;;
45792;SDS011;31495;42.740;22.908;2022-09-03T05:54:16;3.97;;;2.85;;
45792;SDS011;31495;42.740;22.908;2022-09-03T05:55:16;4.03;;;2.92;;
45792;SDS011;31495;42.740;22.908;2022-09-03T05:56:16;4.30;;;3.30;;
45792;SDS011;31495;42.740;22.908;2022-09-03T05:57:17;6.72;;;3.15;;
45792;SDS011;31495;42.740;22.908;2022-09-03T05:58:16;4.95;;;3.33;;
45792;SDS011;31495;42.740;22.908;2022-09-03T05:59:16;5.80;;;3.63;;
45792;SDS011;31495;42.740;22.908;2022-09-03T06:00:15;7.40;;;3.53;;
45792;SDS011;31495;42.740;22.908;2022-09-03T06:02:24;5.45;;;3.95;;
45792;SDS011;31495;42.740;22.908;2022-09-03T06:03:24;6.25;;;3.90;;
45792;SDS011;31495;42.740;22.908;2022-09-03T06:04:23;3.67;;;2.83;;
45792;SDS011;31495;42.740;22.908;2022-09-03T06:05:23;6.43;;;3.47;;
45792;SDS011;31495;42.740;22.908;2022-09-03T06:06:23;4.78;;;3.03;;
45792;SDS011;31495;42.740;22.908;2022-09-03T06:07:24;4.45;;;3.03;;
45792;SDS011;31495;42.740;22.908;2022-09-03T06:08:24;4.40;;;3.08;;
45792;SDS011;31495;42.740;22.908;2022-09-03T06:09:24;5.15;;;3.40;;
45792;SDS011;31495;42.740;22.908;2022-09-03T06:10:24;4.80;;;3.10;;
45792;SDS011;31495;42.740;22.908;2022-09-03T06:11:23;6.80;;;3.80;;
45792;SDS011;31495;42.740;22.908;2022-09-03T06:12:26;5.20;;;3.25;;
45792;SDS011;31495;42.740;22.908;2022-09-03T06:13:26;4.60;;;3.75;;
45792;SDS011;31495;42.740;22.908;2022-09-03T06:14:26;5.13;;;3.60;;
45792;SDS011;31495;42.740;22.908;2022-09-03T06:15:25;5.93;;;3.72;;
45792;SDS011;31495;42.740;22.908;2022-09-03T06:16:24;4.50;;;3.85;;
45792;SDS011;31495;42.740;22.908;2022-09-03T06:17:24;4.32;;;3.15;;
45792;SDS011;31495;42.740;22.908;2022-09-03T06:18:27;4.57;;;3.50;;
45792;SDS011;31495;42.740;22.908;2022-09-03T06:19:27;5.40;;;3.55;;
45792;SDS011;31495;42.740;22.908;2022-09-03T06:20:26;5.65;;;3.95;;
45792;SDS011;31495;42.740;22.908;2022-09-03T06:21:27;3.97;;;3.25;;
45792;SDS011;31495;42.740;22.908;2022-09-03T06:22:27;4.80;;;3.38;;
45792;SDS011;31495;42.740;22.908;2022-09-03T06:23:30;5.63;;;3.97;;
45792;SDS011;31495;42.740;22.908;2022-09-03T06:24:30;4.85;;;3.35;;
45792;SDS011;31495;42.740;22.908;2022-09-03T06:25:30;6.55;;;4.20;;
45792;SDS011;31495;42.740;22.908;2022-09-03T06:26:30;4.82;;;3.92;;
45792;SDS011;31495;42.740;22.908;2022-09-03T06:27:29;5.40;;;4.35;;
45792;SDS011;31495;42.740;22.908;2022-09-03T06:28:29;5.72;;;4.35;;
45792;SDS011;31495;42.740;22.908;2022-09-03T06:29:32;4.45;;;3.42;;
45792;SDS011;31495;42.740;22.908;2022-09-03T06:30:33;4.88;;;3.63;;
45792;SDS011;31495;42.740;22.908;2022-09-03T06:31:34;5.18;;;4.00;;
45792;SDS011;31495;42.740;22.908;2022-09-03T06:32:45;8.20;;;4.30;;
45792;SDS011;31495;42.740;22.908;2022-09-03T06:33:45;5.03;;;3.75;;
45792;SDS011;31495;42.740;22.908;2022-09-03T06:34:46;5.85;;;4.30;;
45792;SDS011;31495;42.740;22.908;2022-09-03T06:35:45;5.03;;;4.15;;
45792;SDS011;31495;42.740;22.908;2022-09-03T06:36:44;8.90;;;4.30;;
45792;SDS011;31495;42.740;22.908;2022-09-03T06:37:44;5.03;;;4.10;;
45792;SDS011;31495;42.740;22.908;2022-09-03T06:38:44;5.03;;;3.70;;
45792;SDS011;31495;42.740;22.908;2022-09-03T06:39:45;5.60;;;4.20;;
45792;SDS011;31495;42.740;22.908;2022-09-03T06:40:50;5.55;;;4.15;;
45792;SDS011;31495;42.740;22.908;2022-09-03T06:41:50;4.15;;;3.25;;
45792;SDS011;31495;42.740;22.908;2022-09-03T06:42:56;4.28;;;3.55;;
45792;SDS011;31495;42.740;22.908;2022-09-03T06:44:04;5.30;;;4.03;;
45792;SDS011;31495;42.740;22.908;2022-09-03T06:45:09;5.13;;;3.67;;
45792;SDS011;31495;42.740;22.908;2022-09-03T06:46:13;4.55;;;3.40;;
45792;SDS011;31495;42.740;22.908;2022-09-03T06:47:14;6.53;;;3.95;;
45792;SDS011;31495;42.740;22.908;2022-09-03T06:48:13;5.53;;;4.10;;
45792;SDS011;31495;42.740;22.908;2022-09-03T06:49:14;5.25;;;3.83;;
45792;SDS011;31495;42.740;22.908;2022-09-03T06:50:13;5.32;;;4.18;;
45792;SDS011;31495;42.740;22.908;2022-09-03T06:51:20;5.38;;;3.78;;
45792;SDS011;31495;42.740;22.908;2022-09-03T06:52:21;5.30;;;4.07;;
45792;SDS011;31495;42.740;22.908;2022-09-03T06:53:21;5.70;;;4.15;;
45792;SDS011;31495;42.740;22.908;2022-09-03T06:54:23;5.50;;;4.10;;
45792;SDS011;31495;42.740;22.908;2022-09-03T06:55:23;5.35;;;3.88;;
45792;SDS011;31495;42.740;22.908;2022-09-03T06:56:22;5.25;;;3.95;;
45792;SDS011;31495;42.740;22.908;2022-09-03T06:57:25;4.90;;;3.88;;
45792;SDS011;31495;42.740;22.908;2022-09-03T06:58:32;4.60;;;3.75;;
45792;SDS011;31495;42.740;22.908;2022-09-03T06:59:42;7.28;;;3.83;;
45792;SDS011;31495;42.740;22.908;2022-09-03T07:00:42;5.22;;;3.80;;
45792;SDS011;31495;42.740;22.908;2022-09-03T07:01:42;5.03;;;3.63;;
45792;SDS011;31495;42.740;22.908;2022-09-03T07:02:43;6.22;;;3.88;;
45792;SDS011;31495;42.740;22.908;2022-09-03T07:03:43;5.85;;;4.03;;
45792;SDS011;31495;42.740;22.908;2022-09-03T07:04:45;5.70;;;4.10;;
45792;SDS011;31495;42.740;22.908;2022-09-03T07:05:44;4.40;;;3.63;;
45792;SDS011;31495;42.740;22.908;2022-09-03T07:06:44;4.95;;;3.53;;
45792;SDS011;31495;42.740;22.908;2022-09-03T07:07:44;5.03;;;3.83;;
45792;SDS011;31495;42.740;22.908;2022-09-03T07:08:44;5.40;;;3.70;;
45792;SDS011;31495;42.740;22.908;2022-09-03T07:09:44;4.88;;;4.13;;
45792;SDS011;31495;42.740;22.908;2022-09-03T07:10:44;6.07;;;4.50;;
45792;SDS011;31495;42.740;22.908;2022-09-03T07:12:44;5.40;;;3.97;;
45792;SDS011;31495;42.740;22.908;2022-09-03T07:13:45;5.72;;;4.22;;
45792;SDS011;31495;42.740;22.908;2022-09-03T07:14:46;5.57;;;4.07;;
45792;SDS011;31495;42.740;22.908;2022-09-03T07:15:46;5.03;;;3.97;;
45792;SDS011;31495;42.740;22.908;2022-09-03T07:16:46;5.60;;;4.25;;
45792;SDS011;31495;42.740;22.908;2022-09-03T07:17:48;6.03;;;4.50;;
45792;SDS011;31495;42.740;22.908;2022-09-03T07:18:48;4.43;;;3.58;;